Time;durP1;ratioP1;P1;durP2;ratioP2;P2;SDS_P1;SDS_P2;PMS_P1;PMS_P2;Temp;Humidity;BMP_temperature;BMP_pressure;BME280_temperature;BME280_humidity;BME280_pressure;Samples;Min_cycle;Max_cycle;Signal;HPM_P1;HPM_P2
2022/01/22 00:01:29;;;;;;;20.25;11.02;;;3.50;99.90;;;;;;5016866;28;20541;-59
2022/01/22 00:03:55;;;;;;;22.85;11.50;;;3.50;99.90;;;;;;5015428;28;20026;-59
2022/01/22 00:06:20;;;;;;;22.10;12.45;;;3.50;99.90;;;;;;5016961;28;20811;-58
2022/01/22 00:08:46;;;;;;;31.98;11.88;;;3.50;99.90;;;;;;5012656;28;20087;-58
2022/01/22 00:11:12;;;;;;;22.63;10.70;;;3.50;99.90;;;;;;5013336;28;20026;-59
2022/01/22 00:16:22;;;;;;;27.15;11.65;;;3.40;99.90;;;;;;5012795;28;20040;-59
2022/01/22 00:18:48;;;;;;;27.95;10.70;;;3.50;99.90;;;;;;5020919;28;20025;-59
2022/01/22 00:21:14;;;;;;;30.38;11.27;;;3.50;99.90;;;;;;5018919;28;20503;-58
2022/01/22 00:23:44;;;;;;;19.52;11.80;;;3.50;99.90;;;;;;5023029;28;20056;-57
2022/01/22 00:26:09;;;;;;;22.63;11.43;;;3.40;99.90;;;;;;5016780;28;20049;-58
2022/01/22 00:28:35;;;;;;;18.58;10.98;;;3.50;99.90;;;;;;5022485;28;20103;-59
2022/01/22 00:31:00;;;;;;;23.48;11.25;;;3.50;99.90;;;;;;5022511;28;20037;-59
2022/01/22 00:33:26;;;;;;;21.02;10.95;;;3.50;99.90;;;;;;5015081;28;20046;-58
2022/01/22 00:35:51;;;;;;;23.92;11.68;;;3.50;99.90;;;;;;5020649;28;20021;-59
2022/01/22 00:38:17;;;;;;;27.27;13.68;;;3.50;99.90;;;;;;5021691;28;20026;-58
2022/01/22 00:40:50;;;;;;;31.10;13.55;;;3.50;99.90;;;;;;5016185;28;20037;-58
2022/01/22 00:43:15;;;;;;;33.30;14.02;;;3.50;99.90;;;;;;5015711;28;20037;-59
2022/01/22 00:45:41;;;;;;;32.88;13.55;;;3.50;99.90;;;;;;5014724;28;20021;-59
2022/01/22 00:48:06;;;;;;;34.33;15.02;;;3.50;99.90;;;;;;5005442;28;20459;-58
2022/01/22 00:50:32;;;;;;;34.50;15.43;;;3.50;99.90;;;;;;5018837;28;20483;-58
2022/01/22 00:52:57;;;;;;;32.35;15.52;;;3.50;99.90;;;;;;5022237;28;20062;-58
2022/01/22 00:55:23;;;;;;;40.22;15.48;;;3.50;99.90;;;;;;5026328;28;20052;-59
2022/01/22 00:57:48;;;;;;;32.83;15.82;;;3.50;99.90;;;;;;5012373;28;20026;-59
2022/01/22 01:00:16;;;;;;;33.30;15.68;;;3.50;99.90;;;;;;5019769;28;20026;-59
2022/01/22 01:02:42;;;;;;;40.63;17.95;;;3.50;99.90;;;;;;5023499;28;20083;-58
2022/01/22 01:05:10;;;;;;;28.85;14.30;;;3.50;99.90;;;;;;5017087;28;20052;-59
2022/01/22 01:07:35;;;;;;;26.48;14.68;;;3.50;99.90;;;;;;5016476;28;20064;-59
2022/01/22 01:10:01;;;;;;;32.22;17.10;;;3.50;99.90;;;;;;5013420;28;20065;-55
2022/01/22 01:12:28;;;;;;;36.28;16.05;;;3.50;99.90;;;;;;5011061;28;20097;-58
2022/01/22 01:34:12;;;;;;;28.05;16.67;;;3.50;99.90;;;;;;5023938;28;20052;-58
2022/01/22 01:36:39;;;;;;;30.90;17.05;;;3.50;99.90;;;;;;5024912;28;20038;-57
2022/01/22 01:39:08;;;;;;;32.55;15.18;;;3.50;99.90;;;;;;5023041;28;20547;-57
2022/01/22 01:42:25;;;;;;;32.28;17.50;;;3.60;99.90;;;;;;5028571;28;20356;-57
2022/01/22 01:44:20;;;;;;;33.17;18.85;;;3.50;99.90;;;;;;5022095;28;20048;-57
2022/01/22 01:46:53;;;;;;;38.03;19.80;;;3.50;99.90;;;;;;5023222;28;20492;-58
2022/01/22 01:49:19;;;;;;;37.85;17.98;;;3.50;99.90;;;;;;5033567;28;20045;-57
2022/01/22 01:51:45;;;;;;;35.33;18.85;;;3.50;99.90;;;;;;5030961;28;20406;-58
2022/01/22 01:59:24;;;;;;;32.75;19.90;;;3.50;99.90;;;;;;5033480;28;20087;-58
2022/01/22 02:01:50;;;;;;;41.28;21.45;;;3.50;99.90;;;;;;5037956;28;20037;-57
2022/01/22 02:04:15;;;;;;;37.80;20.83;;;3.50;99.90;;;;;;5021768;28;20475;-58
2022/01/22 02:06:42;;;;;;;41.72;21.67;;;3.50;99.90;;;;;;5032428;28;20037;-59
2022/01/22 02:09:09;;;;;;;43.72;22.25;;;3.50;99.90;;;;;;5029106;28;20071;-58
2022/01/22 02:11:37;;;;;;;52.00;23.77;;;3.50;99.90;;;;;;5033272;28;20021;-58
2022/01/22 02:14:10;;;;;;;52.55;22.67;;;3.50;99.90;;;;;;5032916;28;20099;-57
2022/01/22 02:24:53;;;;;;;53.90;25.38;;;3.50;99.90;;;;;;5032489;28;20107;-57
2022/01/22 02:27:19;;;;;;;56.83;24.40;;;3.50;99.90;;;;;;5032572;28;20080;-57
2022/01/22 02:29:45;;;;;;;48.53;25.00;;;3.50;99.90;;;;;;5033141;28;20068;-58
2022/01/22 02:35:11;;;;;;;49.22;24.48;;;3.50;99.90;;;;;;5031768;28;20490;-59
2022/01/22 02:37:42;;;;;;;49.05;25.02;;;3.50;99.90;;;;;;5032072;28;20029;-58
2022/01/22 02:40:13;;;;;;;49.75;26.63;;;3.50;99.90;;;;;;5032119;28;20077;-57
2022/01/22 02:42:39;;;;;;;46.05;25.92;;;3.50;99.90;;;;;;5031519;28;20495;-59
2022/01/22 02:45:10;;;;;;;48.67;27.30;;;3.50;99.90;;;;;;5032578;28;20088;-55
2022/01/22 02:47:36;;;;;;;47.33;25.85;;;3.50;99.90;;;;;;5014738;28;20055;-56
2022/01/22 02:50:02;;;;;;;55.25;24.75;;;3.50;99.90;;;;;;5024724;28;20120;-58
2022/01/22 02:52:28;;;;;;;47.63;26.77;;;3.50;99.90;;;;;;5031316;28;20492;-58
2022/01/22 02:54:55;;;;;;;52.40;27.65;;;3.50;99.90;;;;;;5032008;28;20098;-59
2022/01/22 02:57:20;;;;;;;53.03;25.55;;;3.50;99.90;;;;;;5030575;28;20048;-59
2022/01/22 02:59:46;;;;;;;48.67;26.33;;;3.50;99.90;;;;;;5032456;28;20033;-58
2022/01/22 03:02:13;;;;;;;50.65;26.27;;;3.50;99.90;;;;;;5031769;28;20030;-57
2022/01/22 03:04:40;;;;;;;61.92;29.13;;;3.50;99.90;;;;;;5037011;28;20148;-59
2022/01/22 03:07:06;;;;;;;54.58;28.27;;;3.50;99.90;;;;;;5023693;28;20104;-59
2022/01/22 03:09:39;;;;;;;55.15;28.38;;;3.50;99.90;;;;;;5031354;28;20041;-56
2022/01/22 03:20:21;;;;;;;67.57;30.48;;;3.50;99.90;;;;;;5020098;28;20517;-59
2022/01/22 03:27:56;;;;;;;;;;;3.50;99.90;;;;;;5017544;28;20406;-58
2022/01/22 03:30:22;;;;;;;58.13;29.10;;;3.50;99.90;;;;;;5016427;28;19909;-57
2022/01/22 03:32:51;;;;;;;63.75;30.80;;;3.50;99.90;;;;;;5028920;28;20033;-58
2022/01/22 03:37:44;;;;;;;58.65;30.60;;;3.60;99.90;;;;;;5031070;28;20380;-58
2022/01/22 03:40:12;;;;;;;55.60;26.20;;;3.50;99.90;;;;;;5031651;28;20033;-57
2022/01/22 03:42:38;;;;;;;60.50;32.00;;;3.60;99.90;;;;;;5030714;28;20057;-58
2022/01/22 03:45:06;;;;;;;61.85;30.20;;;3.60;99.90;;;;;;5030480;28;20383;-58
2022/01/22 03:47:32;;;;;;;61.13;30.38;;;3.50;99.90;;;;;;5015129;28;20095;-59
2022/01/22 03:49:57;;;;;;;64.55;29.88;;;3.60;99.90;;;;;;5031170;28;20041;-58
2022/01/22 03:52:23;;;;;;;69.70;31.02;;;3.60;99.90;;;;;;5030934;28;20033;-58
2022/01/22 03:54:48;;;;;;;58.20;29.73;;;3.60;99.90;;;;;;5030790;28;20059;-56
2022/01/22 03:57:14;;;;;;;62.60;28.80;;;3.60;99.90;;;;;;5030032;28;20076;-57
2022/01/22 03:59:40;;;;;;;61.15;30.48;;;3.60;99.90;;;;;;5026003;28;20090;-58
2022/01/22 04:02:34;;;;;;;57.35;29.30;;;3.60;99.90;;;;;;5031333;28;20026;-57
2022/01/22 04:04:55;;;;;;;63.22;30.02;;;3.60;99.90;;;;;;5030895;28;20032;-58
2022/01/22 04:08:02;;;;;;;52.92;28.02;;;3.60;99.90;;;;;;5029642;28;20034;-58
2022/01/22 04:10:21;;;;;;;60.40;30.00;;;3.60;99.90;;;;;;5030759;28;20048;-58
2022/01/22 04:12:54;;;;;;;58.40;28.98;;;3.60;99.90;;;;;;5030464;28;20507;-56
2022/01/22 04:15:23;;;;;;;57.65;29.60;;;3.60;99.90;;;;;;5028337;28;20414;-58
2022/01/22 04:25:51;;;;;;;;;;;3.60;99.90;;;;;;5022519;28;20036;-56
2022/01/22 04:28:17;;;;;;;77.72;33.90;;;3.60;99.90;;;;;;5026657;28;19953;-56
2022/01/22 04:30:43;;;;;;;66.82;33.10;;;3.60;99.90;;;;;;5027540;28;20061;-57
2022/01/22 04:33:08;;;;;;;72.40;34.15;;;3.60;99.90;;;;;;5025674;28;20025;-57
2022/01/22 04:35:34;;;;;;;83.70;36.28;;;3.60;99.90;;;;;;5029722;28;20026;-58
2022/01/22 04:38:00;;;;;;;81.88;37.92;;;3.60;99.90;;;;;;5026426;28;20136;-58
2022/01/22 04:40:26;;;;;;;81.03;36.28;;;3.60;99.90;;;;;;5029713;28;20071;-56
2022/01/22 04:42:51;;;;;;;83.60;35.47;;;3.60;99.90;;;;;;5028201;28;20021;-57
2022/01/22 04:45:46;;;;;;;77.40;36.22;;;3.60;99.90;;;;;;5030322;28;20475;-57
2022/01/22 04:48:29;;;;;;;89.07;37.60;;;3.60;99.90;;;;;;5011503;28;20384;-59
2022/01/22 04:56:23;;;;;;;75.13;36.08;;;3.60;99.90;;;;;;5025500;28;20049;-58
2022/01/22 04:58:48;;;;;;;76.80;35.67;;;3.60;99.90;;;;;;5028054;28;20029;-58
2022/01/22 05:01:14;;;;;;;72.47;34.70;;;3.60;99.90;;;;;;5027240;28;20022;-58
2022/01/22 05:03:39;;;;;;;69.68;36.03;;;3.60;99.90;;;;;;5024659;28;20025;-59
2022/01/22 05:06:06;;;;;;;78.97;35.80;;;3.70;99.90;;;;;;5028763;28;20482;-58
2022/01/22 05:08:33;;;;;;;76.13;35.97;;;3.60;99.90;;;;;;5024880;28;20144;-59
2022/01/22 05:10:59;;;;;;;84.60;36.72;;;3.60;99.90;;;;;;5031268;28;20124;-59
2022/01/22 05:13:24;;;;;;;82.15;35.40;;;3.60;99.90;;;;;;5025347;28;20542;-56
2022/01/22 05:15:50;;;;;;;90.80;39.08;;;3.70;99.90;;;;;;5027463;28;20121;-59
2022/01/22 05:18:16;;;;;;;101.97;41.15;;;3.70;99.90;;;;;;5027182;28;20795;-59
2022/01/22 05:20:48;;;;;;;82.22;37.67;;;3.70;99.90;;;;;;5027934;28;20029;-58
2022/01/22 05:23:19;;;;;;;82.10;38.15;;;3.70;99.90;;;;;;5027020;28;20030;-57
2022/01/22 05:25:51;;;;;;;86.63;38.67;;;3.70;99.90;;;;;;5021424;28;20036;-58
2022/01/22 05:28:59;;;;;;;95.53;38.85;;;3.70;99.90;;;;;;5026234;28;20029;-53
2022/01/22 05:31:19;;;;;;;74.38;34.53;;;3.70;99.90;;;;;;5022971;28;20082;-58
2022/01/22 05:39:09;;;;;;;83.80;37.22;;;3.70;99.90;;;;;;5026669;28;20036;-59
2022/01/22 05:41:35;;;;;;;81.97;37.22;;;3.70;99.90;;;;;;5028854;28;20021;-58
2022/01/22 05:44:00;;;;;;;96.60;40.65;;;3.70;99.90;;;;;;5028088;28;20111;-58
2022/01/22 05:46:26;;;;;;;96.53;41.17;;;3.70;99.90;;;;;;5028375;28;20053;-58
2022/01/22 05:48:51;;;;;;;100.57;42.60;;;3.70;99.90;;;;;;5013468;28;20049;-56
2022/01/22 05:51:18;;;;;;;103.07;41.95;;;3.70;99.90;;;;;;5029289;28;20037;-56
2022/01/22 06:01:40;;;;;;;104.68;45.60;;;3.70;99.90;;;;;;5027172;28;20118;-58
2022/01/22 06:04:06;;;;;;;99.22;44.70;;;3.70;99.90;;;;;;5024783;28;20104;-57
2022/01/22 06:06:31;;;;;;;115.00;45.95;;;3.70;99.90;;;;;;5027904;28;20394;-56
2022/01/22 06:08:59;;;;;;;91.03;40.78;;;3.70;99.90;;;;;;5027055;28;20042;-58
2022/01/22 06:11:27;;;;;;;96.60;40.65;;;3.80;99.90;;;;;;5029357;28;20032;-58
2022/01/22 06:13:52;;;;;;;112.15;44.63;;;3.80;99.90;;;;;;5024043;28;20079;-58
2022/01/22 06:16:23;;;;;;;97.57;40.45;;;3.80;99.90;;;;;;5027416;28;20384;-56
2022/01/22 06:18:50;;;;;;;104.70;45.45;;;3.80;99.90;;;;;;5023545;28;20390;-59
2022/01/22 06:21:16;;;;;;;111.63;45.65;;;3.80;99.90;;;;;;5027657;28;20026;-59
2022/01/22 06:23:45;;;;;;;92.88;41.63;;;3.80;99.90;;;;;;5026747;28;20037;-58
2022/01/22 06:26:11;;;;;;;100.35;43.50;;;3.90;99.90;;;;;;5026720;28;20449;-58
2022/01/22 06:28:37;;;;;;;105.95;44.85;;;3.80;99.90;;;;;;5026341;28;20029;-58
2022/01/22 06:31:03;;;;;;;111.50;45.80;;;3.90;99.90;;;;;;5026745;28;20041;-59
2022/01/22 06:33:29;;;;;;;95.00;43.25;;;3.80;99.90;;;;;;5030431;28;20510;-59
2022/01/22 06:35:54;;;;;;;117.88;43.63;;;3.80;99.90;;;;;;5031212;28;20029;-57
2022/01/22 06:38:20;;;;;;;103.63;45.28;;;3.80;99.90;;;;;;5031475;28;20426;-57
2022/01/22 06:43:31;;;;;;;111.13;44.33;;;3.90;99.90;;;;;;5030182;28;20036;-58
2022/01/22 06:45:57;;;;;;;125.93;47.58;;;3.90;99.90;;;;;;5031848;28;20036;-57
2022/01/22 06:48:24;;;;;;;105.93;43.65;;;3.90;99.90;;;;;;5028108;28;20029;-58
2022/01/22 06:50:49;;;;;;;105.85;46.05;;;3.90;99.90;;;;;;5007846;28;20510;-59
2022/01/22 06:53:15;;;;;;;129.88;48.20;;;3.90;99.90;;;;;;5031021;28;20033;-59
2022/01/22 06:58:09;;;;;;;118.32;44.88;;;3.90;99.90;;;;;;5030753;28;20033;-58
2022/01/22 07:00:35;;;;;;;121.03;45.75;;;3.90;99.90;;;;;;5030438;28;20479;-59
2022/01/22 07:03:02;;;;;;;112.05;45.92;;;3.90;99.90;;;;;;5028675;28;20026;-58
2022/01/22 07:05:27;;;;;;;110.93;44.58;;;3.90;99.90;;;;;;5025227;28;20404;-57
2022/01/22 07:07:53;;;;;;;128.40;46.22;;;3.90;99.90;;;;;;5026560;28;20032;-59
2022/01/22 07:10:19;;;;;;;124.68;46.03;;;3.90;99.90;;;;;;5026695;28;20033;-58
2022/01/22 07:12:44;;;;;;;123.43;47.67;;;3.90;99.90;;;;;;5031146;28;20029;-59
2022/01/22 07:15:10;;;;;;;115.45;45.38;;;4.00;99.90;;;;;;5031987;28;20146;-58
2022/01/22 07:17:38;;;;;;;114.93;44.28;;;4.00;99.90;;;;;;5030211;28;20069;-57
2022/01/22 07:20:10;;;;;;;132.02;49.88;;;3.90;99.90;;;;;;5030843;28;20037;-59
2022/01/22 07:25:04;;;;;;;124.85;49.88;;;4.00;99.90;;;;;;5031840;28;20025;-59
2022/01/22 07:27:30;;;;;;;131.80;48.15;;;3.90;99.90;;;;;;5029378;28;20087;-58
2022/01/22 07:29:55;;;;;;;176.98;52.58;;;4.00;99.90;;;;;;5030410;28;20034;-59
2022/01/22 07:32:33;;;;;;;122.13;47.38;;;4.00;99.90;;;;;;5029754;28;20018;-58
2022/01/22 07:34:58;;;;;;;113.70;43.35;;;4.00;99.90;;;;;;5030959;28;20588;-57
2022/01/22 07:37:24;;;;;;;125.18;45.00;;;4.00;99.90;;;;;;5023620;28;20028;-59
2022/01/22 07:39:50;;;;;;;98.30;41.55;;;4.00;99.90;;;;;;5026846;28;20098;-59
2022/01/22 07:42:15;;;;;;;109.90;43.20;;;4.00;99.90;;;;;;5029037;28;20032;-59
2022/01/22 07:44:41;;;;;;;96.80;42.22;;;4.00;99.90;;;;;;5027837;28;20026;-59
2022/01/22 07:47:06;;;;;;;115.10;42.97;;;4.10;99.90;;;;;;5030022;28;20021;-57
2022/01/22 07:49:32;;;;;;;120.15;44.50;;;4.10;99.90;;;;;;5012071;28;20087;-59
2022/01/22 07:51:57;;;;;;;109.35;41.75;;;4.10;99.90;;;;;;5029278;28;20120;-58
2022/01/22 07:54:24;;;;;;;104.97;41.00;;;4.10;99.90;;;;;;5031214;28;20026;-59
2022/01/22 07:56:50;;;;;;;110.72;42.45;;;4.10;99.90;;;;;;5028983;28;20038;-56
2022/01/22 07:59:15;;;;;;;95.68;39.97;;;4.10;99.90;;;;;;5029007;28;20247;-58
2022/01/22 08:01:41;;;;;;;103.05;40.10;;;4.20;99.90;;;;;;5030127;28;20458;-58
2022/01/22 08:04:06;;;;;;;103.00;39.67;;;4.10;99.90;;;;;;5024287;28;20075;-57
2022/01/22 08:06:32;;;;;;;98.40;39.72;;;4.20;99.90;;;;;;5025904;28;20086;-57
2022/01/22 08:08:58;;;;;;;97.43;40.60;;;4.20;99.90;;;;;;5030001;28;20053;-58
2022/01/22 08:11:23;;;;;;;96.72;41.47;;;4.20;99.90;;;;;;5030554;28;20051;-57
2022/01/22 08:13:52;;;;;;;107.18;41.78;;;4.20;99.90;;;;;;5030223;28;20037;-57
2022/01/22 08:16:17;;;;;;;86.93;39.72;;;4.20;99.90;;;;;;5031023;28;20156;-58
2022/01/22 08:18:43;;;;;;;95.45;40.80;;;4.20;99.90;;;;;;5029899;28;20112;-57
2022/01/22 08:21:09;;;;;;;99.97;42.60;;;4.20;99.90;;;;;;5030069;28;20664;-58
2022/01/22 08:23:34;;;;;;;92.38;40.85;;;4.20;99.90;;;;;;5029234;28;20022;-58
2022/01/22 08:26:04;;;;;;;98.72;41.85;;;4.20;99.90;;;;;;5022709;28;20034;-58
2022/01/22 08:36:49;;;;;;;98.28;40.85;;;4.30;99.90;;;;;;5022210;28;20581;-59
2022/01/22 08:39:16;;;;;;;104.28;44.70;;;4.30;99.90;;;;;;5028962;28;20029;-59
2022/01/22 08:41:43;;;;;;;109.82;43.38;;;4.30;99.90;;;;;;5022586;28;20578;-59
2022/01/22 08:44:10;;;;;;;136.55;46.30;;;4.30;99.90;;;;;;5025857;28;20020;-58
2022/01/22 08:46:36;;;;;;;91.82;41.42;;;4.40;99.90;;;;;;5027589;28;20030;-59
2022/01/22 08:49:04;;;;;;;150.13;47.40;;;4.30;99.90;;;;;;5026073;28;20037;-56
2022/01/22 08:51:32;;;;;;;109.50;43.28;;;4.40;99.90;;;;;;5028678;28;20131;-59
2022/01/22 08:54:00;;;;;;;125.05;45.88;;;4.40;99.90;;;;;;5028474;28;20083;-59
2022/01/22 08:56:26;;;;;;;118.22;44.65;;;4.40;99.90;;;;;;5028558;28;20453;-59
2022/01/22 08:58:52;;;;;;;115.68;46.20;;;4.40;99.90;;;;;;5028576;28;20100;-55
2022/01/22 09:01:18;;;;;;;114.93;47.58;;;4.50;99.90;;;;;;5029501;28;20025;-59
2022/01/22 09:03:43;;;;;;;107.60;45.20;;;4.40;99.90;;;;;;5028138;28;20025;-59
2022/01/22 09:06:11;;;;;;;125.10;46.22;;;4.50;99.90;;;;;;5027733;28;20025;-59
2022/01/22 09:08:37;;;;;;;115.93;44.22;;;4.50;99.90;;;;;;5027518;28;20534;-58
2022/01/22 09:11:03;;;;;;;113.88;46.75;;;4.50;99.90;;;;;;5028551;28;20029;-59
2022/01/22 09:13:28;;;;;;;114.82;45.47;;;4.50;99.90;;;;;;5029363;28;20033;-59
2022/01/22 09:15:55;;;;;;;121.35;44.92;;;4.50;99.90;;;;;;5030672;28;20032;-59
2022/01/22 09:18:21;;;;;;;109.60;42.55;;;4.50;99.90;;;;;;5028619;28;20495;-59
2022/01/22 09:23:17;;;;;;;117.13;43.38;;;4.50;99.90;;;;;;5025277;28;20021;-59
2022/01/22 09:25:44;;;;;;;101.10;42.05;;;4.60;99.90;;;;;;5023673;28;20028;-59
2022/01/22 09:28:12;;;;;;;98.88;42.67;;;4.60;99.90;;;;;;5029695;28;20029;-59
2022/01/22 09:30:39;;;;;;;95.72;38.42;;;4.60;99.90;;;;;;5029591;28;20459;-58
2022/01/22 09:33:04;;;;;;;88.30;36.90;;;4.60;99.90;;;;;;5028004;28;20037;-60
2022/01/22 09:35:30;;;;;;;86.53;37.25;;;4.70;99.90;;;;;;5024839;28;20037;-59
2022/01/22 09:37:57;;;;;;;84.47;35.67;;;4.70;99.90;;;;;;5027276;28;20110;-59
2022/01/22 09:40:24;;;;;;;80.10;37.50;;;4.70;99.90;;;;;;5026957;28;20116;-59
2022/01/22 09:42:50;;;;;;;93.38;38.78;;;4.80;99.90;;;;;;5026647;28;20455;-60
2022/01/22 09:45:17;;;;;;;108.85;40.47;;;4.80;99.90;;;;;;5027219;28;20111;-59
2022/01/22 09:47:46;;;;;;;104.28;43.25;;;4.80;99.90;;;;;;5027418;28;20033;-58
2022/01/22 09:50:12;;;;;;;86.20;39.15;;;4.80;99.90;;;;;;5012661;28;20049;-59
2022/01/22 09:52:39;;;;;;;93.15;38.45;;;4.80;99.90;;;;;;5025743;28;20095;-59
2022/01/22 09:55:05;;;;;;;102.05;41.22;;;4.80;99.90;;;;;;5028856;28;20388;-58
2022/01/22 09:57:33;;;;;;;94.65;40.95;;;4.80;99.90;;;;;;5029377;28;20037;-56
2022/01/22 09:59:59;;;;;;;88.18;38.08;;;4.80;99.90;;;;;;5029243;28;20037;-58
2022/01/22 10:02:25;;;;;;;96.75;37.00;;;4.80;99.90;;;;;;5023683;28;20498;-59
2022/01/22 10:04:52;;;;;;;87.38;38.28;;;4.90;99.90;;;;;;5028267;28;20021;-58
2022/01/22 10:07:22;;;;;;;82.60;37.08;;;4.90;99.90;;;;;;5030269;28;20439;-59
2022/01/22 10:10:03;;;;;;;78.50;36.15;;;4.90;99.90;;;;;;5033098;28;20038;-59
2022/01/22 10:12:31;;;;;;;84.15;35.47;;;5.10;99.90;;;;;;5030827;28;20117;-60
2022/01/22 10:15:09;;;;;;;73.22;35.33;;;5.10;99.90;;;;;;5031819;28;20022;-56
2022/01/22 10:17:49;;;;;;;70.43;33.63;;;5.20;99.90;;;;;;5027853;28;20053;-59
2022/01/22 10:20:27;;;;;;;59.05;29.90;;;5.20;99.90;;;;;;5031358;28;20033;-59
2022/01/22 10:23:00;;;;;;;74.45;33.35;;;5.30;99.90;;;;;;5029893;28;20487;-54
2022/01/22 10:25:30;;;;;;;64.55;31.33;;;5.30;99.90;;;;;;5031266;28;20048;-57
2022/01/22 10:28:05;;;;;;;75.78;32.58;;;5.30;99.90;;;;;;5031568;28;20442;-57
2022/01/22 10:30:40;;;;;;;64.75;30.60;;;5.40;99.90;;;;;;5039798;28;20115;-58
2022/01/22 10:35:47;;;;;;;64.40;29.17;;;5.30;99.90;;;;;;5032655;28;20094;-57
2022/01/22 10:38:13;;;;;;;59.63;29.40;;;5.20;99.90;;;;;;5031450;28;20074;-58
2022/01/22 10:40:42;;;;;;;72.53;31.25;;;5.20;99.90;;;;;;5032520;28;20437;-58
2022/01/22 10:43:17;;;;;;;60.90;29.02;;;5.20;99.90;;;;;;5024933;28;20033;-59
2022/01/22 10:46:03;;;;;;;62.63;28.50;;;5.20;99.90;;;;;;5023793;28;20026;-59
2022/01/22 10:48:30;;;;;;;71.60;29.25;;;5.20;99.90;;;;;;5028763;28;20029;-58
2022/01/22 10:51:18;;;;;;;51.25;24.70;;;5.20;99.90;;;;;;5013874;28;20125;-57
2022/01/22 10:53:53;;;;;;;59.72;26.17;;;5.20;99.90;;;;;;5027899;28;20441;-59
2022/01/22 10:56:22;;;;;;;69.88;26.05;;;5.20;99.90;;;;;;5030293;28;20025;-59
2022/01/22 10:58:58;;;;;;;53.70;24.80;;;5.20;99.90;;;;;;5030318;28;20652;-59
2022/01/22 11:01:55;;;;;;;48.67;24.55;;;5.20;99.90;;;;;;5028815;28;20025;-59
2022/01/22 11:04:25;;;;;;;51.58;25.73;;;5.20;99.90;;;;;;5032443;28;20029;-58
2022/01/22 11:06:54;;;;;;;53.80;25.17;;;5.20;99.90;;;;;;5029889;28;20025;-59
2022/01/22 11:09:22;;;;;;;47.65;24.38;;;5.30;99.90;;;;;;5040396;28;20022;-60
2022/01/22 11:11:49;;;;;;;54.75;26.13;;;5.30;99.90;;;;;;5029620;28;20041;-58
2022/01/22 11:14:15;;;;;;;56.08;23.73;;;5.30;99.90;;;;;;5031746;28;20029;-59
2022/01/22 11:16:43;;;;;;;54.90;24.65;;;5.30;99.90;;;;;;5031222;28;20506;-58
2022/01/22 11:19:10;;;;;;;54.28;26.52;;;5.30;99.90;;;;;;5031066;28;20030;-60
2022/01/22 11:21:43;;;;;;;57.53;26.33;;;5.30;99.90;;;;;;5031390;28;20036;-60
2022/01/22 11:24:10;;;;;;;52.45;26.30;;;5.40;99.90;;;;;;5030337;28;20025;-59
2022/01/22 11:26:39;;;;;;;51.85;24.50;;;5.30;99.90;;;;;;5028469;28;20017;-59
2022/01/22 11:29:06;;;;;;;44.22;22.13;;;5.30;99.90;;;;;;5029068;28;20641;-58
2022/01/22 11:31:34;;;;;;;47.60;23.45;;;5.30;99.90;;;;;;5031247;28;20025;-58
2022/01/22 11:34:01;;;;;;;46.97;22.20;;;5.30;99.90;;;;;;5028418;28;20529;-60
2022/01/22 11:36:37;;;;;;;40.80;22.85;;;5.30;99.90;;;;;;5030230;28;20029;-59
2022/01/22 11:39:03;;;;;;;40.88;21.35;;;5.30;99.90;;;;;;5027686;28;20108;-59
2022/01/22 11:41:29;;;;;;;46.85;23.52;;;5.40;99.90;;;;;;5031862;28;20112;-60
2022/01/22 11:46:40;;;;;;;63.80;28.55;;;5.40;99.90;;;;;;5019156;28;20034;-58
2022/01/22 11:49:16;;;;;;;58.03;28.95;;;5.40;99.90;;;;;;5017747;28;20048;-58
2022/01/22 11:51:47;;;;;;;63.35;32.10;;;5.40;99.90;;;;;;5006630;28;20071;-59
2022/01/22 11:54:15;;;;;;;65.72;30.73;;;5.40;99.90;;;;;;5023658;28;20038;-59
2022/01/22 11:56:52;;;;;;;59.53;29.33;;;5.40;99.90;;;;;;5029441;28;20104;-60
2022/01/22 11:59:23;;;;;;;63.80;32.97;;;5.40;99.90;;;;;;5029458;28;20507;-59
2022/01/22 12:01:56;;;;;;;77.25;34.35;;;5.40;99.90;;;;;;5020073;28;20114;-60
2022/01/22 12:04:24;;;;;;;66.88;32.13;;;5.40;99.90;;;;;;5021956;28;20056;-60
2022/01/22 12:07:02;;;;;;;61.83;30.70;;;5.40;99.90;;;;;;5020708;28;20032;-59
2022/01/22 12:09:31;;;;;;;62.08;30.45;;;5.40;99.90;;;;;;5021380;28;20402;-60
2022/01/22 12:15:04;;;;;;;61.03;31.92;;;5.40;99.90;;;;;;5025403;28;20056;-59
2022/01/22 12:17:53;;;;;;;67.97;31.25;;;5.40;99.90;;;;;;5030287;28;20064;-59
2022/01/22 12:23:05;;;;;;;60.58;30.40;;;5.50;99.90;;;;;;5030160;28;20471;-59
2022/01/22 12:25:31;;;;;;;53.67;27.30;;;5.50;99.90;;;;;;5023473;28;20380;-59
2022/01/22 12:27:58;;;;;;;44.20;23.88;;;5.50;99.90;;;;;;5022671;28;20075;-58
2022/01/22 12:30:48;;;;;;;40.65;23.75;;;5.60;99.90;;;;;;5026080;28;20403;-58
2022/01/22 12:33:34;;;;;;;47.55;25.30;;;5.60;99.90;;;;;;5027907;28;20057;-58
2022/01/22 12:36:05;;;;;;;44.40;24.27;;;5.70;99.90;;;;;;5025598;28;20033;-59
2022/01/22 12:38:45;;;;;;;42.22;23.15;;;5.70;99.90;;;;;;5027768;28;20380;-58
2022/01/22 12:44:13;;;;;;;35.78;19.23;;;5.70;99.90;;;;;;5027645;28;20108;-58
2022/01/22 12:46:39;;;;;;;36.58;21.38;;;5.60;99.90;;;;;;5025115;28;20025;-58
2022/01/22 12:49:07;;;;;;;40.85;21.45;;;5.60;99.90;;;;;;5027915;28;20395;-60
2022/01/22 12:51:34;;;;;;;48.70;22.92;;;5.70;99.90;;;;;;5010526;28;20060;-59
2022/01/22 12:54:00;;;;;;;36.30;20.45;;;5.60;99.90;;;;;;5029193;28;20083;-60
2022/01/22 12:59:08;;;;;;;37.45;19.92;;;5.60;99.90;;;;;;5022301;28;20491;-55
2022/01/22 13:01:35;;;;;;;35.45;19.33;;;5.60;99.90;;;;;;5025815;28;20471;-60
2022/01/22 13:04:05;;;;;;;42.35;20.88;;;5.60;99.90;;;;;;5028880;28;20049;-59
2022/01/22 13:06:46;;;;;;;41.95;21.35;;;5.60;99.90;;;;;;5025698;28;20518;-59
2022/01/22 13:09:13;;;;;;;48.63;24.73;;;5.60;99.90;;;;;;5024566;28;20026;-59
2022/01/22 13:11:50;;;;;;;49.20;25.05;;;5.50;99.90;;;;;;5030096;28;20506;-60
2022/01/22 13:14:18;;;;;;;47.60;23.80;;;5.50;99.90;;;;;;5029384;28;20025;-59
2022/01/22 13:16:50;;;;;;;44.50;22.60;;;5.50;99.90;;;;;;5024231;28;20034;-59
2022/01/22 13:19:16;;;;;;;45.17;23.30;;;5.50;99.90;;;;;;5021292;28;20044;-58
2022/01/22 13:21:52;;;;;;;43.72;22.48;;;5.50;99.90;;;;;;5028352;28;20546;-58
2022/01/22 13:24:25;;;;;;;40.38;22.95;;;5.50;99.90;;;;;;5021186;28;20061;-59
2022/01/22 13:27:06;;;;;;;46.65;23.98;;;5.50;99.90;;;;;;5024388;28;20116;-59
2022/01/22 13:29:54;;;;;;;50.45;23.33;;;5.50;99.90;;;;;;5021625;28;20497;-60
2022/01/22 13:32:35;;;;;;;42.35;23.08;;;5.50;99.90;;;;;;5018102;28;20566;-59
2022/01/22 13:48:37;;;;;;;36.97;19.02;;;5.50;99.90;;;;;;5033530;28;20034;-59
2022/01/22 13:51:04;;;;;;;34.53;17.55;;;5.50;99.90;;;;;;5012880;28;20049;-60
2022/01/22 13:53:31;;;;;;;34.17;17.92;;;5.50;99.90;;;;;;5033122;28;20025;-60
2022/01/22 13:55:58;;;;;;;41.50;19.88;;;5.50;99.90;;;;;;5031814;28;20543;-59
2022/01/22 13:58:24;;;;;;;37.83;19.63;;;5.50;99.90;;;;;;5023798;28;20032;-57
2022/01/22 14:00:49;;;;;;;32.95;18.38;;;5.50;99.90;;;;;;5024670;28;20894;-60
2022/01/22 14:03:29;;;;;;;38.25;19.27;;;5.50;99.90;;;;;;5016340;28;20033;-58
2022/01/22 14:05:55;;;;;;;39.75;20.13;;;5.50;99.90;;;;;;5027845;28;20128;-58
2022/01/22 14:08:33;;;;;;;39.40;19.90;;;5.40;99.90;;;;;;5029881;28;20104;-60
2022/01/22 14:11:06;;;;;;;38.42;19.70;;;5.50;99.90;;;;;;5028093;28;20059;-59
2022/01/22 14:13:32;;;;;;;41.67;19.45;;;5.50;99.90;;;;;;5031095;28;20061;-60
2022/01/22 14:16:21;;;;;;;38.30;19.80;;;5.40;99.90;;;;;;5027411;28;20052;-59
2022/01/22 14:18:47;;;;;;;38.60;18.80;;;5.50;99.90;;;;;;5031087;28;20041;-59
2022/01/22 14:21:21;;;;;;;38.53;20.02;;;5.50;99.90;;;;;;5031215;28;20564;-58
2022/01/22 14:23:50;;;;;;;;;;;5.50;99.90;;;;;;5032312;28;20117;-58
2022/01/22 14:26:41;;;;;;;36.70;18.58;;;5.50;99.90;;;;;;5032030;28;20302;-58
2022/01/22 14:29:14;;;;;;;34.13;19.23;;;5.50;99.90;;;;;;5027119;28;20029;-59
2022/01/22 14:31:39;;;;;;;39.75;20.58;;;5.50;99.90;;;;;;5024979;28;20037;-59
2022/01/22 14:34:08;;;;;;;36.28;20.70;;;5.50;99.90;;;;;;5025300;28;20233;-59
2022/01/22 14:36:43;;;;;;;36.75;19.45;;;5.60;99.90;;;;;;5022999;28;20025;-58
2022/01/22 14:44:40;;;;;;;35.20;21.75;;;5.50;99.90;;;;;;5032610;28;20091;-59
2022/01/22 14:47:11;;;;;;;38.88;20.63;;;5.50;99.90;;;;;;5029924;28;21499;-59
2022/01/22 14:49:44;;;;;;;38.40;22.38;;;5.50;99.90;;;;;;5032598;28;20570;-59
2022/01/22 14:52:11;;;;;;;47.40;23.13;;;5.40;99.90;;;;;;5013830;28;20080;-60
2022/01/22 14:54:39;;;;;;;44.10;24.08;;;5.50;99.90;;;;;;5032062;28;20065;-59
2022/01/22 14:57:07;;;;;;;41.83;24.15;;;5.50;99.90;;;;;;5030810;28;20068;-60
2022/01/22 14:59:34;;;;;;;50.65;25.42;;;5.50;99.90;;;;;;5031573;28;20449;-59